sensor_id;sensor_type;location;lat;lon;timestamp;P1;durP1;ratioP1;P2;durP2;ratioP2
25609;SDS011;13479;49.044;8.716;2023-02-23T00:00:40;46.75;;;21.98;;
25609;SDS011;13479;49.044;8.716;2023-02-23T00:03:08;46.13;;;21.80;;
25609;SDS011;13479;49.044;8.716;2023-02-23T00:05:34;45.35;;;21.90;;
25609;SDS011;13479;49.044;8.716;2023-02-23T00:08:00;40.10;;;20.73;;
25609;SDS011;13479;49.044;8.716;2023-02-23T00:10:26;46.63;;;21.08;;
25609;SDS011;13479;49.044;8.716;2023-02-23T00:12:55;47.40;;;20.90;;
25609;SDS011;13479;49.044;8.716;2023-02-23T00:15:22;47.47;;;22.17;;
25609;SDS011;13479;49.044;8.716;2023-02-23T00:17:50;41.83;;;21.83;;
25609;SDS011;13479;49.044;8.716;2023-02-23T00:20:16;44.22;;;22.60;;
25609;SDS011;13479;49.044;8.716;2023-02-23T00:22:49;49.05;;;23.30;;
25609;SDS011;13479;49.044;8.716;2023-02-23T00:25:16;49.90;;;26.42;;
25609;SDS011;13479;49.044;8.716;2023-02-23T00:27:42;45.90;;;23.95;;
25609;SDS011;13479;49.044;8.716;2023-02-23T00:30:10;47.88;;;24.27;;
25609;SDS011;13479;49.044;8.716;2023-02-23T00:32:37;46.63;;;23.15;;
25609;SDS011;13479;49.044;8.716;2023-02-23T00:35:02;41.25;;;22.92;;
25609;SDS011;13479;49.044;8.716;2023-02-23T00:37:27;49.53;;;23.60;;
25609;SDS011;13479;49.044;8.716;2023-02-23T00:39:56;49.67;;;24.02;;
25609;SDS011;13479;49.044;8.716;2023-02-23T00:42:22;43.63;;;22.90;;
25609;SDS011;13479;49.044;8.716;2023-02-23T00:44:48;45.75;;;22.42;;
25609;SDS011;13479;49.044;8.716;2023-02-23T00:47:14;53.40;;;24.05;;
25609;SDS011;13479;49.044;8.716;2023-02-23T00:49:39;48.90;;;23.10;;
25609;SDS011;13479;49.044;8.716;2023-02-23T00:52:04;50.08;;;23.13;;
25609;SDS011;13479;49.044;8.716;2023-02-23T00:54:30;50.35;;;23.38;;
25609;SDS011;13479;49.044;8.716;2023-02-23T00:56:55;51.47;;;24.50;;
25609;SDS011;13479;49.044;8.716;2023-02-23T00:59:20;51.17;;;24.58;;
25609;SDS011;13479;49.044;8.716;2023-02-23T01:01:46;51.60;;;24.65;;
25609;SDS011;13479;49.044;8.716;2023-02-23T01:04:12;46.97;;;24.27;;
25609;SDS011;13479;49.044;8.716;2023-02-23T01:06:38;45.13;;;22.92;;
25609;SDS011;13479;49.044;8.716;2023-02-23T01:09:06;50.10;;;23.85;;
25609;SDS011;13479;49.044;8.716;2023-02-23T01:11:35;48.28;;;23.27;;
25609;SDS011;13479;49.044;8.716;2023-02-23T01:14:01;45.25;;;22.67;;
25609;SDS011;13479;49.044;8.716;2023-02-23T01:16:28;49.17;;;23.05;;
25609;SDS011;13479;49.044;8.716;2023-02-23T01:18:56;39.78;;;21.80;;
25609;SDS011;13479;49.044;8.716;2023-02-23T01:21:24;44.20;;;22.05;;
25609;SDS011;13479;49.044;8.716;2023-02-23T01:23:52;46.83;;;24.08;;
25609;SDS011;13479;49.044;8.716;2023-02-23T01:26:19;45.42;;;22.95;;
25609;SDS011;13479;49.044;8.716;2023-02-23T01:28:50;47.47;;;24.02;;
25609;SDS011;13479;49.044;8.716;2023-02-23T01:31:20;52.10;;;25.70;;
25609;SDS011;13479;49.044;8.716;2023-02-23T01:33:46;56.25;;;26.80;;
25609;SDS011;13479;49.044;8.716;2023-02-23T01:36:16;48.08;;;25.67;;
25609;SDS011;13479;49.044;8.716;2023-02-23T01:38:42;61.88;;;28.02;;
25609;SDS011;13479;49.044;8.716;2023-02-23T01:41:08;55.20;;;26.42;;
25609;SDS011;13479;49.044;8.716;2023-02-23T01:43:33;48.25;;;23.88;;
25609;SDS011;13479;49.044;8.716;2023-02-23T01:46:01;55.30;;;25.17;;
25609;SDS011;13479;49.044;8.716;2023-02-23T01:48:31;48.03;;;24.40;;
25609;SDS011;13479;49.044;8.716;2023-02-23T01:53:31;49.42;;;24.52;;
25609;SDS011;13479;49.044;8.716;2023-02-23T01:56:02;50.13;;;24.08;;
25609;SDS011;13479;49.044;8.716;2023-02-23T01:58:35;51.55;;;25.17;;
25609;SDS011;13479;49.044;8.716;2023-02-23T02:01:03;51.95;;;24.80;;
25609;SDS011;13479;49.044;8.716;2023-02-23T02:03:30;50.83;;;25.08;;
25609;SDS011;13479;49.044;8.716;2023-02-23T02:05:59;54.22;;;22.85;;
25609;SDS011;13479;49.044;8.716;2023-02-23T02:08:26;47.22;;;22.98;;
25609;SDS011;13479;49.044;8.716;2023-02-23T02:10:54;47.63;;;21.60;;
25609;SDS011;13479;49.044;8.716;2023-02-23T02:13:22;46.35;;;23.52;;
25609;SDS011;13479;49.044;8.716;2023-02-23T02:16:13;46.38;;;22.60;;
25609;SDS011;13479;49.044;8.716;2023-02-23T02:27:28;43.85;;;22.88;;
25609;SDS011;13479;49.044;8.716;2023-02-23T02:43:36;54.60;;;24.63;;
25609;SDS011;13479;49.044;8.716;2023-02-23T02:46:10;48.20;;;24.50;;
25609;SDS011;13479;49.044;8.716;2023-02-23T02:48:50;51.10;;;24.75;;
25609;SDS011;13479;49.044;8.716;2023-02-23T02:56:54;52.05;;;24.08;;
25609;SDS011;13479;49.044;8.716;2023-02-23T02:59:24;43.42;;;22.45;;
25609;SDS011;13479;49.044;8.716;2023-02-23T03:02:12;49.38;;;22.40;;
25609;SDS011;13479;49.044;8.716;2023-02-23T03:04:59;42.28;;;21.52;;
25609;SDS011;13479;49.044;8.716;2023-02-23T03:07:56;45.17;;;23.08;;
25609;SDS011;13479;49.044;8.716;2023-02-23T03:11:10;42.42;;;21.65;;
25609;SDS011;13479;49.044;8.716;2023-02-23T03:17:44;45.00;;;22.35;;
25609;SDS011;13479;49.044;8.716;2023-02-23T03:26:15;47.63;;;23.77;;
25609;SDS011;13479;49.044;8.716;2023-02-23T03:29:03;49.70;;;23.75;;
25609;SDS011;13479;49.044;8.716;2023-02-23T03:32:00;47.88;;;24.50;;
25609;SDS011;13479;49.044;8.716;2023-02-23T03:34:55;49.95;;;24.55;;
25609;SDS011;13479;49.044;8.716;2023-02-23T03:37:44;46.20;;;23.40;;
25609;SDS011;13479;49.044;8.716;2023-02-23T03:40:36;51.47;;;25.25;;
25609;SDS011;13479;49.044;8.716;2023-02-23T03:43:25;49.17;;;24.80;;
25609;SDS011;13479;49.044;8.716;2023-02-23T03:46:14;45.58;;;23.65;;
25609;SDS011;13479;49.044;8.716;2023-02-23T03:49:02;49.63;;;24.80;;
25609;SDS011;13479;49.044;8.716;2023-02-23T03:51:51;46.22;;;24.58;;
25609;SDS011;13479;49.044;8.716;2023-02-23T03:54:40;47.03;;;23.60;;
25609;SDS011;13479;49.044;8.716;2023-02-23T03:57:30;48.60;;;24.35;;
25609;SDS011;13479;49.044;8.716;2023-02-23T04:00:19;45.42;;;23.80;;
25609;SDS011;13479;49.044;8.716;2023-02-23T04:03:07;44.92;;;22.85;;
25609;SDS011;13479;49.044;8.716;2023-02-23T04:05:55;51.05;;;24.92;;
25609;SDS011;13479;49.044;8.716;2023-02-23T04:08:40;48.45;;;25.17;;
25609;SDS011;13479;49.044;8.716;2023-02-23T04:11:27;43.95;;;22.48;;
25609;SDS011;13479;49.044;8.716;2023-02-23T04:14:30;47.00;;;23.92;;
25609;SDS011;13479;49.044;8.716;2023-02-23T04:17:02;46.17;;;23.33;;
25609;SDS011;13479;49.044;8.716;2023-02-23T04:19:29;46.88;;;23.65;;
25609;SDS011;13479;49.044;8.716;2023-02-23T04:21:54;44.50;;;22.50;;
25609;SDS011;13479;49.044;8.716;2023-02-23T04:24:19;45.33;;;22.52;;
25609;SDS011;13479;49.044;8.716;2023-02-23T04:26:44;43.28;;;22.50;;
25609;SDS011;13479;49.044;8.716;2023-02-23T04:29:10;41.45;;;21.75;;
25609;SDS011;13479;49.044;8.716;2023-02-23T04:31:36;46.95;;;23.02;;
25609;SDS011;13479;49.044;8.716;2023-02-23T04:34:02;46.05;;;23.67;;
25609;SDS011;13479;49.044;8.716;2023-02-23T04:36:28;46.97;;;23.17;;
25609;SDS011;13479;49.044;8.716;2023-02-23T04:38:53;44.88;;;23.25;;
25609;SDS011;13479;49.044;8.716;2023-02-23T04:41:19;41.10;;;22.80;;
25609;SDS011;13479;49.044;8.716;2023-02-23T04:43:44;46.05;;;23.85;;
25609;SDS011;13479;49.044;8.716;2023-02-23T04:46:09;43.15;;;22.92;;
25609;SDS011;13479;49.044;8.716;2023-02-23T04:48:35;43.80;;;23.48;;
25609;SDS011;13479;49.044;8.716;2023-02-23T04:51:00;39.90;;;21.67;;
25609;SDS011;13479;49.044;8.716;2023-02-23T04:53:25;51.33;;;24.15;;
25609;SDS011;13479;49.044;8.716;2023-02-23T04:55:51;48.42;;;24.05;;
25609;SDS011;13479;49.044;8.716;2023-02-23T04:58:16;45.42;;;23.45;;
25609;SDS011;13479;49.044;8.716;2023-02-23T05:00:41;44.00;;;23.05;;
25609;SDS011;13479;49.044;8.716;2023-02-23T05:03:06;43.17;;;23.83;;
25609;SDS011;13479;49.044;8.716;2023-02-23T05:05:32;43.97;;;22.90;;
25609;SDS011;13479;49.044;8.716;2023-02-23T05:07:57;46.83;;;23.10;;
25609;SDS011;13479;49.044;8.716;2023-02-23T05:10:23;42.58;;;22.77;;
25609;SDS011;13479;49.044;8.716;2023-02-23T05:12:48;48.80;;;23.98;;
25609;SDS011;13479;49.044;8.716;2023-02-23T05:15:13;48.63;;;24.85;;
25609;SDS011;13479;49.044;8.716;2023-02-23T05:17:39;50.10;;;25.25;;
25609;SDS011;13479;49.044;8.716;2023-02-23T05:20:08;52.85;;;28.17;;
25609;SDS011;13479;49.044;8.716;2023-02-23T05:22:35;51.25;;;27.50;;
25609;SDS011;13479;49.044;8.716;2023-02-23T05:25:00;45.97;;;26.20;;
25609;SDS011;13479;49.044;8.716;2023-02-23T05:27:27;58.60;;;27.48;;
25609;SDS011;13479;49.044;8.716;2023-02-23T05:29:52;51.92;;;27.25;;
25609;SDS011;13479;49.044;8.716;2023-02-23T05:32:17;50.38;;;25.50;;
25609;SDS011;13479;49.044;8.716;2023-02-23T05:34:42;51.35;;;26.95;;
25609;SDS011;13479;49.044;8.716;2023-02-23T05:37:08;50.55;;;26.05;;
25609;SDS011;13479;49.044;8.716;2023-02-23T05:39:33;53.85;;;28.27;;
25609;SDS011;13479;49.044;8.716;2023-02-23T05:41:58;52.15;;;26.77;;
25609;SDS011;13479;49.044;8.716;2023-02-23T05:44:23;47.67;;;25.60;;
25609;SDS011;13479;49.044;8.716;2023-02-23T05:46:49;58.47;;;29.35;;
25609;SDS011;13479;49.044;8.716;2023-02-23T05:49:14;51.67;;;25.88;;
25609;SDS011;13479;49.044;8.716;2023-02-23T05:51:39;52.65;;;27.15;;
25609;SDS011;13479;49.044;8.716;2023-02-23T05:54:05;45.47;;;24.60;;
25609;SDS011;13479;49.044;8.716;2023-02-23T05:56:31;49.85;;;26.40;;
25609;SDS011;13479;49.044;8.716;2023-02-23T05:58:56;46.03;;;25.02;;
25609;SDS011;13479;49.044;8.716;2023-02-23T06:01:22;42.90;;;24.05;;
25609;SDS011;13479;49.044;8.716;2023-02-23T06:03:48;49.88;;;25.10;;
25609;SDS011;13479;49.044;8.716;2023-02-23T06:06:14;44.72;;;24.75;;
25609;SDS011;13479;49.044;8.716;2023-02-23T06:08:40;49.88;;;26.90;;
25609;SDS011;13479;49.044;8.716;2023-02-23T06:11:05;51.03;;;26.17;;
25609;SDS011;13479;49.044;8.716;2023-02-23T06:13:30;56.78;;;27.90;;
25609;SDS011;13479;49.044;8.716;2023-02-23T06:15:57;51.72;;;26.05;;
25609;SDS011;13479;49.044;8.716;2023-02-23T06:18:23;52.13;;;26.25;;
25609;SDS011;13479;49.044;8.716;2023-02-23T06:20:49;51.00;;;26.73;;
25609;SDS011;13479;49.044;8.716;2023-02-23T06:23:15;47.90;;;24.88;;
25609;SDS011;13479;49.044;8.716;2023-02-23T06:25:40;48.65;;;26.48;;
25609;SDS011;13479;49.044;8.716;2023-02-23T06:28:07;56.25;;;26.05;;
25609;SDS011;13479;49.044;8.716;2023-02-23T06:30:32;56.63;;;27.25;;
25609;SDS011;13479;49.044;8.716;2023-02-23T06:32:58;59.85;;;28.45;;
25609;SDS011;13479;49.044;8.716;2023-02-23T06:35:23;67.88;;;31.98;;
25609;SDS011;13479;49.044;8.716;2023-02-23T06:37:50;66.72;;;30.65;;
25609;SDS011;13479;49.044;8.716;2023-02-23T06:40:15;73.18;;;32.38;;
25609;SDS011;13479;49.044;8.716;2023-02-23T06:42:40;78.43;;;33.17;;
25609;SDS011;13479;49.044;8.716;2023-02-23T06:45:06;80.25;;;33.67;;
25609;SDS011;13479;49.044;8.716;2023-02-23T06:47:31;72.07;;;31.65;;
25609;SDS011;13479;49.044;8.716;2023-02-23T06:49:57;63.45;;;29.02;;
25609;SDS011;13479;49.044;8.716;2023-02-23T06:52:23;57.80;;;28.95;;
25609;SDS011;13479;49.044;8.716;2023-02-23T06:54:49;66.07;;;28.83;;
25609;SDS011;13479;49.044;8.716;2023-02-23T06:57:15;54.33;;;27.95;;
25609;SDS011;13479;49.044;8.716;2023-02-23T06:59:40;57.50;;;28.50;;
25609;SDS011;13479;49.044;8.716;2023-02-23T07:02:06;58.20;;;28.02;;
25609;SDS011;13479;49.044;8.716;2023-02-23T07:04:32;49.63;;;25.67;;
25609;SDS011;13479;49.044;8.716;2023-02-23T07:06:57;51.60;;;23.90;;
25609;SDS011;13479;49.044;8.716;2023-02-23T07:09:23;49.92;;;25.27;;
25609;SDS011;13479;49.044;8.716;2023-02-23T07:11:48;46.33;;;24.33;;
25609;SDS011;13479;49.044;8.716;2023-02-23T07:14:13;48.10;;;25.48;;
25609;SDS011;13479;49.044;8.716;2023-02-23T07:16:39;49.97;;;23.55;;
25609;SDS011;13479;49.044;8.716;2023-02-23T07:19:04;46.05;;;22.85;;
25609;SDS011;13479;49.044;8.716;2023-02-23T07:21:31;51.92;;;24.88;;
25609;SDS011;13479;49.044;8.716;2023-02-23T07:23:57;43.60;;;23.08;;
25609;SDS011;13479;49.044;8.716;2023-02-23T07:26:23;42.00;;;22.00;;
25609;SDS011;13479;49.044;8.716;2023-02-23T07:28:48;47.40;;;23.70;;
25609;SDS011;13479;49.044;8.716;2023-02-23T07:31:13;45.40;;;23.58;;
25609;SDS011;13479;49.044;8.716;2023-02-23T07:33:39;43.83;;;23.50;;
25609;SDS011;13479;49.044;8.716;2023-02-23T07:36:04;44.22;;;23.65;;
25609;SDS011;13479;49.044;8.716;2023-02-23T07:38:30;47.13;;;24.80;;
25609;SDS011;13479;49.044;8.716;2023-02-23T07:40:55;46.03;;;24.50;;
25609;SDS011;13479;49.044;8.716;2023-02-23T07:43:20;43.38;;;24.25;;
25609;SDS011;13479;49.044;8.716;2023-02-23T07:45:46;43.03;;;23.10;;
25609;SDS011;13479;49.044;8.716;2023-02-23T07:48:12;41.00;;;22.30;;
25609;SDS011;13479;49.044;8.716;2023-02-23T07:50:38;39.83;;;22.48;;
25609;SDS011;13479;49.044;8.716;2023-02-23T07:53:04;38.85;;;20.88;;
25609;SDS011;13479;49.044;8.716;2023-02-23T07:55:30;40.05;;;21.75;;
25609;SDS011;13479;49.044;8.716;2023-02-23T07:57:55;35.95;;;19.98;;
25609;SDS011;13479;49.044;8.716;2023-02-23T08:00:21;38.00;;;20.08;;
25609;SDS011;13479;49.044;8.716;2023-02-23T08:02:46;34.60;;;18.50;;
25609;SDS011;13479;49.044;8.716;2023-02-23T08:05:11;30.90;;;18.60;;
25609;SDS011;13479;49.044;8.716;2023-02-23T08:07:36;31.63;;;17.75;;
25609;SDS011;13479;49.044;8.716;2023-02-23T08:10:02;32.97;;;17.90;;
25609;SDS011;13479;49.044;8.716;2023-02-23T08:12:27;34.25;;;18.20;;
25609;SDS011;13479;49.044;8.716;2023-02-23T08:14:52;34.88;;;18.52;;
25609;SDS011;13479;49.044;8.716;2023-02-23T08:17:18;26.25;;;15.98;;
25609;SDS011;13479;49.044;8.716;2023-02-23T08:19:43;26.63;;;14.57;;
25609;SDS011;13479;49.044;8.716;2023-02-23T08:22:09;24.48;;;14.82;;
25609;SDS011;13479;49.044;8.716;2023-02-23T08:24:34;27.50;;;15.30;;
25609;SDS011;13479;49.044;8.716;2023-02-23T08:27:01;28.75;;;14.60;;
25609;SDS011;13479;49.044;8.716;2023-02-23T08:29:26;24.52;;;12.65;;
25609;SDS011;13479;49.044;8.716;2023-02-23T08:31:52;20.30;;;11.27;;
25609;SDS011;13479;49.044;8.716;2023-02-23T08:34:18;21.33;;;11.43;;
25609;SDS011;13479;49.044;8.716;2023-02-23T08:36:44;19.35;;;10.35;;
25609;SDS011;13479;49.044;8.716;2023-02-23T08:39:10;18.55;;;10.70;;
25609;SDS011;13479;49.044;8.716;2023-02-23T08:41:36;14.65;;;9.25;;
25609;SDS011;13479;49.044;8.716;2023-02-23T08:44:02;18.50;;;9.30;;
25609;SDS011;13479;49.044;8.716;2023-02-23T08:46:27;15.05;;;7.97;;
25609;SDS011;13479;49.044;8.716;2023-02-23T08:48:54;18.23;;;9.25;;
25609;SDS011;13479;49.044;8.716;2023-02-23T08:51:19;14.73;;;7.97;;
25609;SDS011;13479;49.044;8.716;2023-02-23T08:53:45;13.85;;;8.02;;
25609;SDS011;13479;49.044;8.716;2023-02-23T08:56:10;15.65;;;8.55;;
25609;SDS011;13479;49.044;8.716;2023-02-23T08:58:36;15.45;;;7.97;;
25609;SDS011;13479;49.044;8.716;2023-02-23T09:01:02;13.98;;;7.75;;
25609;SDS011;13479;49.044;8.716;2023-02-23T09:03:28;13.40;;;7.32;;
25609;SDS011;13479;49.044;8.716;2023-02-23T09:05:55;11.93;;;7.25;;
25609;SDS011;13479;49.044;8.716;2023-02-23T09:08:32;12.30;;;6.82;;
25609;SDS011;13479;49.044;8.716;2023-02-23T09:10:57;11.63;;;6.63;;
25609;SDS011;13479;49.044;8.716;2023-02-23T09:13:22;14.57;;;6.60;;
25609;SDS011;13479;49.044;8.716;2023-02-23T09:15:48;10.80;;;6.68;;
25609;SDS011;13479;49.044;8.716;2023-02-23T09:18:13;12.43;;;6.07;;
25609;SDS011;13479;49.044;8.716;2023-02-23T09:20:42;11.38;;;5.70;;
25609;SDS011;13479;49.044;8.716;2023-02-23T09:23:08;12.35;;;6.25;;
25609;SDS011;13479;49.044;8.716;2023-02-23T09:25:38;11.90;;;6.35;;
25609;SDS011;13479;49.044;8.716;2023-02-23T09:28:08;10.88;;;6.85;;
25609;SDS011;13479;49.044;8.716;2023-02-23T09:30:36;13.80;;;7.10;;
25609;SDS011;13479;49.044;8.716;2023-02-23T09:33:01;14.02;;;6.78;;
25609;SDS011;13479;49.044;8.716;2023-02-23T09:35:27;15.13;;;7.40;;
25609;SDS011;13479;49.044;8.716;2023-02-23T09:37:53;13.68;;;7.20;;
25609;SDS011;13479;49.044;8.716;2023-02-23T09:40:23;10.93;;;7.05;;
25609;SDS011;13479;49.044;8.716;2023-02-23T09:42:59;16.13;;;7.80;;
25609;SDS011;13479;49.044;8.716;2023-02-23T09:45:36;16.70;;;8.00;;
25609;SDS011;13479;49.044;8.716;2023-02-23T09:50:45;11.07;;;6.97;;
25609;SDS011;13479;49.044;8.716;2023-02-23T09:56:12;12.32;;;7.53;;
25609;SDS011;13479;49.044;8.716;2023-02-23T09:58:42;11.70;;;6.72;;
25609;SDS011;13479;49.044;8.716;2023-02-23T10:06:36;13.00;;;7.00;;
25609;SDS011;13479;49.044;8.716;2023-02-23T10:12:42;9.35;;;5.63;;
25609;SDS011;13479;49.044;8.716;2023-02-23T10:14:54;10.77;;;5.72;;
25609;SDS011;13479;49.044;8.716;2023-02-23T10:17:28;10.85;;;5.20;;
25609;SDS011;13479;49.044;8.716;2023-02-23T10:20:03;12.27;;;5.40;;
25609;SDS011;13479;49.044;8.716;2023-02-23T10:22:37;10.55;;;5.68;;
25609;SDS011;13479;49.044;8.716;2023-02-23T10:25:08;12.60;;;5.00;;
25609;SDS011;13479;49.044;8.716;2023-02-23T10:27:39;11.10;;;4.97;;
25609;SDS011;13479;49.044;8.716;2023-02-23T10:30:16;12.50;;;5.10;;
25609;SDS011;13479;49.044;8.716;2023-02-23T10:32:50;9.15;;;4.72;;
25609;SDS011;13479;49.044;8.716;2023-02-23T10:35:21;11.02;;;5.35;;
25609;SDS011;13479;49.044;8.716;2023-02-23T10:37:47;10.57;;;5.25;;
25609;SDS011;13479;49.044;8.716;2023-02-23T10:40:16;8.85;;;5.50;;
25609;SDS011;13479;49.044;8.716;2023-02-23T10:42:47;15.13;;;5.70;;
25609;SDS011;13479;49.044;8.716;2023-02-23T10:45:14;10.77;;;5.35;;
25609;SDS011;13479;49.044;8.716;2023-02-23T10:47:46;11.70;;;5.50;;
25609;SDS011;13479;49.044;8.716;2023-02-23T10:50:19;13.60;;;5.95;;
25609;SDS011;13479;49.044;8.716;2023-02-23T10:52:46;9.85;;;5.70;;
25609;SDS011;13479;49.044;8.716;2023-02-23T10:55:25;9.60;;;5.40;;
25609;SDS011;13479;49.044;8.716;2023-02-23T11:00:51;9.00;;;5.00;;
25609;SDS011;13479;49.044;8.716;2023-02-23T11:03:26;13.10;;;4.45;;
25609;SDS011;13479;49.044;8.716;2023-02-23T11:05:56;10.90;;;4.70;;
25609;SDS011;13479;49.044;8.716;2023-02-23T11:08:32;10.35;;;4.95;;
25609;SDS011;13479;49.044;8.716;2023-02-23T11:13:40;12.20;;;6.72;;
25609;SDS011;13479;49.044;8.716;2023-02-23T11:18:40;13.60;;;6.70;;
25609;SDS011;13479;49.044;8.716;2023-02-23T11:21:16;13.82;;;7.05;;
25609;SDS011;13479;49.044;8.716;2023-02-23T11:23:47;14.05;;;7.00;;
25609;SDS011;13479;49.044;8.716;2023-02-23T11:26:19;11.27;;;6.05;;
25609;SDS011;13479;49.044;8.716;2023-02-23T11:28:52;15.20;;;7.53;;
25609;SDS011;13479;49.044;8.716;2023-02-23T11:31:22;15.85;;;7.93;;
25609;SDS011;13479;49.044;8.716;2023-02-23T11:33:54;13.07;;;6.97;;
25609;SDS011;13479;49.044;8.716;2023-02-23T11:38:46;16.42;;;7.03;;
25609;SDS011;13479;49.044;8.716;2023-02-23T11:41:22;12.23;;;7.05;;
25609;SDS011;13479;49.044;8.716;2023-02-23T11:43:48;16.52;;;7.45;;
25609;SDS011;13479;49.044;8.716;2023-02-23T11:46:15;14.13;;;7.13;;
25609;SDS011;13479;49.044;8.716;2023-02-23T11:51:28;12.48;;;7.25;;
25609;SDS011;13479;49.044;8.716;2023-02-23T11:53:55;17.42;;;8.15;;
25609;SDS011;13479;49.044;8.716;2023-02-23T11:56:22;16.77;;;8.02;;
25609;SDS011;13479;49.044;8.716;2023-02-23T11:58:50;12.85;;;7.55;;
25609;SDS011;13479;49.044;8.716;2023-02-23T12:01:20;17.40;;;8.48;;
25609;SDS011;13479;49.044;8.716;2023-02-23T12:03:58;17.00;;;7.95;;
25609;SDS011;13479;49.044;8.716;2023-02-23T12:08:59;14.68;;;8.30;;
25609;SDS011;13479;49.044;8.716;2023-02-23T12:11:32;17.50;;;7.82;;
25609;SDS011;13479;49.044;8.716;2023-02-23T12:14:11;13.00;;;6.60;;
25609;SDS011;13479;49.044;8.716;2023-02-23T12:16:56;12.77;;;6.82;;
25609;SDS011;13479;49.044;8.716;2023-02-23T12:19:32;12.93;;;6.50;;
25609;SDS011;13479;49.044;8.716;2023-02-23T12:22:05;11.20;;;6.10;;
25609;SDS011;13479;49.044;8.716;2023-02-23T12:24:43;15.18;;;6.57;;
25609;SDS011;13479;49.044;8.716;2023-02-23T12:27:15;11.25;;;6.22;;
25609;SDS011;13479;49.044;8.716;2023-02-23T12:29:56;12.70;;;6.82;;
25609;SDS011;13479;49.044;8.716;2023-02-23T12:32:28;13.00;;;6.78;;
25609;SDS011;13479;49.044;8.716;2023-02-23T12:37:57;14.45;;;7.82;;
25609;SDS011;13479;49.044;8.716;2023-02-23T12:40:29;15.02;;;7.90;;
25609;SDS011;13479;49.044;8.716;2023-02-23T12:43:04;15.98;;;7.47;;
25609;SDS011;13479;49.044;8.716;2023-02-23T12:45:42;14.60;;;8.38;;
25609;SDS011;13479;49.044;8.716;2023-02-23T12:51:23;17.17;;;9.48;;
25609;SDS011;13479;49.044;8.716;2023-02-23T12:53:53;17.38;;;8.15;;
25609;SDS011;13479;49.044;8.716;2023-02-23T12:56:27;17.23;;;8.38;;
25609;SDS011;13479;49.044;8.716;2023-02-23T13:10:00;18.42;;;8.38;;
25609;SDS011;13479;49.044;8.716;2023-02-23T13:15:30;20.40;;;7.45;;
25609;SDS011;13479;49.044;8.716;2023-02-23T13:23:41;14.13;;;6.93;;
25609;SDS011;13479;49.044;8.716;2023-02-23T13:26:21;19.30;;;7.95;;
25609;SDS011;13479;49.044;8.716;2023-02-23T13:29:02;11.98;;;6.55;;
25609;SDS011;13479;49.044;8.716;2023-02-23T13:31:37;12.32;;;5.40;;
25609;SDS011;13479;49.044;8.716;2023-02-23T13:34:08;12.52;;;5.10;;
25609;SDS011;13479;49.044;8.716;2023-02-23T13:36:37;9.80;;;4.22;;
25609;SDS011;13479;49.044;8.716;2023-02-23T13:41:47;10.35;;;2.67;;
25609;SDS011;13479;49.044;8.716;2023-02-23T13:44:32;9.43;;;2.83;;
25609;SDS011;13479;49.044;8.716;2023-02-23T13:47:26;8.70;;;2.60;;
25609;SDS011;13479;49.044;8.716;2023-02-23T13:50:03;6.70;;;2.45;;
25609;SDS011;13479;49.044;8.716;2023-02-23T13:52:42;8.70;;;3.40;;
25609;SDS011;13479;49.044;8.716;2023-02-23T14:00:20;7.35;;;2.80;;
25609;SDS011;13479;49.044;8.716;2023-02-23T14:02:46;6.75;;;2.95;;
25609;SDS011;13479;49.044;8.716;2023-02-23T14:05:23;8.13;;;2.90;;
25609;SDS011;13479;49.044;8.716;2023-02-23T14:07:53;7.20;;;2.75;;
25609;SDS011;13479;49.044;8.716;2023-02-23T14:17:59;9.63;;;3.15;;
25609;SDS011;13479;49.044;8.716;2023-02-23T14:20:41;9.10;;;3.65;;
25609;SDS011;13479;49.044;8.716;2023-02-23T14:25:45;6.05;;;2.80;;
25609;SDS011;13479;49.044;8.716;2023-02-23T14:31:04;8.63;;;3.20;;
25609;SDS011;13479;49.044;8.716;2023-02-23T14:41:21;10.07;;;4.03;;
25609;SDS011;13479;49.044;8.716;2023-02-23T14:49:32;10.40;;;4.32;;
25609;SDS011;13479;49.044;8.716;2023-02-23T14:52:06;12.80;;;4.47;;
25609;SDS011;13479;49.044;8.716;2023-02-23T14:54:37;10.55;;;4.38;;
25609;SDS011;13479;49.044;8.716;2023-02-23T14:57:05;8.15;;;4.38;;
25609;SDS011;13479;49.044;8.716;2023-02-23T14:59:41;8.48;;;4.40;;
25609;SDS011;13479;49.044;8.716;2023-02-23T15:02:19;9.75;;;3.67;;
25609;SDS011;13479;49.044;8.716;2023-02-23T15:04:48;9.55;;;3.75;;
25609;SDS011;13479;49.044;8.716;2023-02-23T15:07:15;7.15;;;3.75;;
25609;SDS011;13479;49.044;8.716;2023-02-23T15:09:49;9.63;;;4.00;;
25609;SDS011;13479;49.044;8.716;2023-02-23T15:12:18;9.52;;;4.10;;
25609;SDS011;13479;49.044;8.716;2023-02-23T15:14:50;7.72;;;3.65;;
25609;SDS011;13479;49.044;8.716;2023-02-23T15:17:17;12.45;;;4.63;;
25609;SDS011;13479;49.044;8.716;2023-02-23T15:19:46;10.65;;;4.10;;
25609;SDS011;13479;49.044;8.716;2023-02-23T15:22:20;12.68;;;4.80;;
25609;SDS011;13479;49.044;8.716;2023-02-23T15:24:50;12.45;;;4.88;;
25609;SDS011;13479;49.044;8.716;2023-02-23T15:27:22;13.75;;;5.20;;
25609;SDS011;13479;49.044;8.716;2023-02-23T15:29:52;11.90;;;4.80;;
25609;SDS011;13479;49.044;8.716;2023-02-23T15:32:20;9.35;;;5.15;;
25609;SDS011;13479;49.044;8.716;2023-02-23T15:34:49;11.02;;;5.07;;
25609;SDS011;13479;49.044;8.716;2023-02-23T15:37:17;11.38;;;6.25;;
25609;SDS011;13479;49.044;8.716;2023-02-23T15:39:50;11.32;;;5.75;;
25609;SDS011;13479;49.044;8.716;2023-02-23T15:42:23;14.20;;;6.55;;
25609;SDS011;13479;49.044;8.716;2023-02-23T15:45:13;17.08;;;6.63;;
25609;SDS011;13479;49.044;8.716;2023-02-23T15:47:43;17.27;;;6.88;;
25609;SDS011;13479;49.044;8.716;2023-02-23T15:50:16;12.15;;;6.15;;
25609;SDS011;13479;49.044;8.716;2023-02-23T15:52:48;13.10;;;7.03;;
25609;SDS011;13479;49.044;8.716;2023-02-23T15:55:29;13.18;;;6.50;;
25609;SDS011;13479;49.044;8.716;2023-02-23T15:58:01;11.60;;;5.95;;
25609;SDS011;13479;49.044;8.716;2023-02-23T16:00:40;15.88;;;6.15;;
25609;SDS011;13479;49.044;8.716;2023-02-23T16:03:20;13.27;;;6.35;;
25609;SDS011;13479;49.044;8.716;2023-02-23T16:05:54;13.98;;;6.07;;
25609;SDS011;13479;49.044;8.716;2023-02-23T16:08:24;12.32;;;6.65;;
25609;SDS011;13479;49.044;8.716;2023-02-23T16:10:51;12.38;;;5.55;;
25609;SDS011;13479;49.044;8.716;2023-02-23T16:13:21;14.65;;;5.90;;
25609;SDS011;13479;49.044;8.716;2023-02-23T16:15:47;11.52;;;5.30;;
25609;SDS011;13479;49.044;8.716;2023-02-23T16:18:17;13.10;;;5.60;;
25609;SDS011;13479;49.044;8.716;2023-02-23T16:20:48;17.30;;;7.32;;
25609;SDS011;13479;49.044;8.716;2023-02-23T16:23:36;12.85;;;6.28;;
25609;SDS011;13479;49.044;8.716;2023-02-23T16:26:09;11.90;;;5.18;;
25609;SDS011;13479;49.044;8.716;2023-02-23T16:28:40;11.77;;;4.95;;
25609;SDS011;13479;49.044;8.716;2023-02-23T16:31:08;10.43;;;4.57;;
25609;SDS011;13479;49.044;8.716;2023-02-23T16:34:16;11.07;;;4.63;;
25609;SDS011;13479;49.044;8.716;2023-02-23T16:36:42;16.67;;;5.25;;
25609;SDS011;13479;49.044;8.716;2023-02-23T16:39:11;11.50;;;5.40;;
25609;SDS011;13479;49.044;8.716;2023-02-23T16:41:37;12.65;;;5.40;;
25609;SDS011;13479;49.044;8.716;2023-02-23T16:44:03;11.30;;;4.78;;
25609;SDS011;13479;49.044;8.716;2023-02-23T16:49:18;14.27;;;6.60;;
25609;SDS011;13479;49.044;8.716;2023-02-23T16:51:43;14.15;;;6.78;;
25609;SDS011;13479;49.044;8.716;2023-02-23T16:54:09;12.13;;;6.55;;
25609;SDS011;13479;49.044;8.716;2023-02-23T16:56:34;10.65;;;5.72;;
25609;SDS011;13479;49.044;8.716;2023-02-23T16:59:02;13.45;;;5.28;;